Time;durP1;ratioP1;P1;durP2;ratioP2;P2;SDS_P1;SDS_P2;PMS_P1;PMS_P2;Temp;Humidity;BMP_temperature;BMP_pressure;BME280_temperature;BME280_humidity;BME280_pressure;Samples;Min_cycle;Max_cycle;Signal;HPM_P1;HPM_P2
2023/12/12 00:01:22;;;;;;;3.78;1.83;;;;;;;8.77;100.00;98038.94;4106519;28;20238;-44
2023/12/12 00:03:24;;;;;;;2.38;1.02;;;;;;;8.69;100.00;98042.09;4106861;28;20210;-44
2023/12/12 00:05:26;;;;;;;5.40;1.35;;;;;;;8.64;100.00;98039.28;4105689;28;20206;-44
2023/12/12 00:07:28;;;;;;;5.43;4.30;;;;;;;8.65;100.00;98036.31;4104271;28;20244;-45
2023/12/12 00:09:30;;;;;;;3.30;2.08;;;;;;;8.54;100.00;98028.25;4104792;28;20287;-45
2023/12/12 00:11:32;;;;;;;4.47;3.03;;;;;;;8.55;100.00;98029.88;4091019;28;20215;-45
2023/12/12 00:13:34;;;;;;;1.75;1.65;;;;;;;8.47;100.00;98027.56;4087346;28;20211;-45
2023/12/12 00:15:35;;;;;;;1.77;1.33;;;;;;;8.51;100.00;98028.72;4087601;28;20257;-47
2023/12/12 00:17:38;;;;;;;1.75;1.65;;;;;;;8.53;100.00;98024.66;4094585;28;20227;-46
2023/12/12 00:19:42;;;;;;;1.67;1.52;;;;;;;8.47;100.00;98027.56;4093082;28;20246;-46
2023/12/12 00:21:44;;;;;;;1.45;1.35;;;;;;;8.43;100.00;98029.13;4095557;28;20843;-45
2023/12/12 00:23:45;;;;;;;1.15;1.05;;;;;;;8.43;100.00;98037.31;4104284;28;20214;-45
2023/12/12 00:25:47;;;;;;;2.03;1.73;;;;;;;8.36;100.00;98026.56;4105963;28;20815;-44
2023/12/12 00:27:49;;;;;;;23.27;3.28;;;;;;;8.39;100.00;98026.09;4106400;28;20210;-45
2023/12/12 00:29:51;;;;;;;6.78;1.67;;;;;;;8.29;100.00;98036.00;4105996;28;20214;-45
2023/12/12 00:31:52;;;;;;;2.30;1.70;;;;;;;8.30;100.00;98037.66;4105499;28;20203;-45
2023/12/12 00:33:54;;;;;;;2.63;1.52;;;;;;;8.31;100.00;98050.19;4090704;28;20258;-44
2023/12/12 00:35:58;;;;;;;1.90;1.75;;;;;;;8.37;100.00;98055.50;4108280;28;20305;-44
2023/12/12 00:38:00;;;;;;;12.70;1.38;;;;;;;8.43;100.00;98045.50;4105768;28;20306;-44
2023/12/12 00:40:02;;;;;;;2.40;2.20;;;;;;;8.38;100.00;98045.41;4092225;28;20328;-45
2023/12/12 00:42:04;;;;;;;3.80;1.85;;;;;;;8.35;100.00;98037.75;4105471;28;20242;-44
2023/12/12 00:44:05;;;;;;;5.30;3.78;;;;;;;8.31;100.00;98044.75;4106692;28;20217;-46
2023/12/12 00:46:10;;;;;;;1.55;1.45;;;;;;;8.30;100.00;98038.44;4089343;28;20232;-44
2023/12/12 00:48:12;;;;;;;2.60;1.45;;;;;;;8.25;100.00;98037.56;4088093;28;20215;-46
2023/12/12 00:50:14;;;;;;;7.22;1.77;;;;;;;8.22;100.00;98038.88;4091025;28;20215;-46
2023/12/12 00:52:15;;;;;;;10.68;2.78;;;;;;;8.39;100.00;98038.88;4106353;28;20569;-45
2023/12/12 00:54:17;;;;;;;6.65;2.00;;;;;;;8.22;100.00;98041.59;4087572;28;20258;-45
2023/12/12 00:56:19;;;;;;;6.32;1.98;;;;;;;8.23;100.00;98042.44;4108602;28;20290;-45
2023/12/12 00:58:20;;;;;;;10.27;1.77;;;;;;;8.22;100.00;98029.88;4104251;28;20273;-45
2023/12/12 01:00:22;;;;;;;2.05;1.77;;;;;;;8.31;100.00;98033.84;4106985;28;20257;-44
2023/12/12 01:02:25;;;;;;;1.75;1.65;;;;;;;8.19;100.00;98030.31;4106743;28;20230;-44
2023/12/12 01:04:27;;;;;;;3.95;1.92;;;;;;;8.17;100.00;98033.31;4105740;28;20669;-44
2023/12/12 01:06:28;;;;;;;4.25;1.55;;;;;;;8.15;100.00;98029.19;4104850;28;20231;-45
2023/12/12 01:08:30;;;;;;;2.00;1.88;;;;;;;8.23;100.00;98029.63;4105034;28;20206;-44
2023/12/12 01:10:32;;;;;;;6.63;2.30;;;;;;;8.27;100.00;98027.22;4104391;28;20219;-45
2023/12/12 01:12:34;;;;;;;2.33;1.48;;;;;;;8.33;100.00;98026.22;4090146;28;20214;-45
2023/12/12 01:14:36;;;;;;;4.18;0.98;;;;;;;8.33;100.00;98024.34;4105792;28;20661;-45
2023/12/12 01:16:37;;;;;;;4.43;1.73;;;;;;;8.21;100.00;98028.25;4103704;28;20227;-44
2023/12/12 01:18:39;;;;;;;3.95;1.73;;;;;;;8.21;100.00;98022.78;4103136;28;20239;-46
2023/12/12 01:20:41;;;;;;;4.78;1.55;;;;;;;8.19;100.00;98013.97;4092506;28;20693;-45
2023/12/12 01:22:43;;;;;;;1.90;1.35;;;;;;;8.22;100.00;98019.78;4088101;28;20272;-45
2023/12/12 01:24:45;;;;;;;4.70;2.05;;;;;;;8.32;100.00;98013.69;4089616;28;20204;-46
2023/12/12 01:26:46;;;;;;;2.40;1.42;;;;;;;8.26;100.00;98020.13;4104148;28;20312;-45
2023/12/12 01:28:49;;;;;;;7.72;1.63;;;;;;;8.33;100.00;98015.34;4091831;28;20212;-45
2023/12/12 01:30:51;;;;;;;4.35;2.53;;;;;;;8.25;100.00;98010.31;4104707;28;20862;-45
2023/12/12 01:32:52;;;;;;;5.30;2.42;;;;;;;8.35;100.00;98015.94;4106879;28;20215;-46
2023/12/12 01:34:54;;;;;;;6.57;2.47;;;;;;;8.20;100.00;98008.31;4087136;28;20794;-43
2023/12/12 01:36:56;;;;;;;2.60;2.33;;;;;;;8.35;100.00;98013.22;4070204;29;20235;-44
2023/12/12 01:38:58;;;;;;;1.52;1.42;;;;;;;8.22;100.00;98018.97;4100539;28;20215;-45
2023/12/12 01:41:00;;;;;;;9.48;2.25;;;;;;;8.15;100.00;98018.28;4107513;28;20214;-44
2023/12/12 01:43:05;;;;;;;2.92;2.03;;;;;;;8.09;100.00;98022.81;4105249;28;20230;-46
2023/12/12 01:45:07;;;;;;;3.85;1.83;;;;;;;8.11;100.00;98022.56;4101750;28;20211;-45
2023/12/12 01:47:10;;;;;;;7.10;1.98;;;;;;;7.95;100.00;98015.22;4087266;28;20326;-44
2023/12/12 01:49:12;;;;;;;6.88;2.85;;;;;;;7.92;100.00;98023.84;4104930;28;20347;-44
2023/12/12 01:51:14;;;;;;;2.85;1.65;;;;;;;7.93;100.00;98025.50;4104055;28;20207;-45
2023/12/12 01:53:19;;;;;;;4.97;2.03;;;;;;;8.04;100.00;98013.72;4104824;28;20237;-45
2023/12/12 01:55:20;;;;;;;6.78;1.83;;;;;;;7.98;100.00;98017.44;4091769;28;20376;-45
2023/12/12 01:57:23;;;;;;;3.75;2.38;;;;;;;7.90;100.00;98018.66;4103639;28;20309;-45
2023/12/12 01:59:25;;;;;;;4.47;1.02;;;;;;;7.95;100.00;98012.50;4083054;28;20215;-44
2023/12/12 02:01:27;;;;;;;1.10;1.10;;;;;;;7.87;100.00;98015.59;4083721;28;20216;-44
2023/12/12 02:03:29;;;;;;;7.30;2.65;;;;;;;7.95;100.00;98001.59;4084214;28;20251;-45
2023/12/12 02:05:31;;;;;;;3.47;1.90;;;;;;;7.97;100.00;98007.63;4085587;28;20291;-46
2023/12/12 02:07:35;;;;;;;4.07;1.48;;;;;;;7.95;100.00;98007.03;4103788;28;20234;-45
2023/12/12 02:09:37;;;;;;;2.50;1.50;;;;;;;7.90;100.00;98006.94;4087408;28;20219;-44
2023/12/12 02:11:38;;;;;;;2.05;1.30;;;;;;;7.94;100.00;98010.81;4092065;28;20215;-44
2023/12/12 02:13:40;;;;;;;4.25;2.03;;;;;;;7.92;100.00;98002.06;4087820;28;20214;-44
2023/12/12 02:15:42;;;;;;;3.90;1.63;;;;;;;7.93;100.00;98006.44;4102462;28;20657;-45
2023/12/12 02:17:43;;;;;;;2.17;2.08;;;;;;;7.94;100.00;98005.38;4103889;28;20707;-44
2023/12/12 02:19:45;;;;;;;1.92;1.10;;;;;;;7.92;100.00;97996.63;4103636;28;20218;-44
2023/12/12 02:21:47;;;;;;;1.52;1.42;;;;;;;7.85;100.00;98001.41;4103965;28;20207;-43
2023/12/12 02:23:48;;;;;;;10.38;1.33;;;;;;;7.87;100.00;97997.38;4103505;28;20258;-44
2023/12/12 02:25:50;;;;;;;11.23;3.00;;;;;;;7.85;100.00;97995.94;4101467;28;21137;-45
2023/12/12 02:27:52;;;;;;;5.80;2.85;;;;;;;7.85;100.00;98012.28;4088836;28;20289;-44
2023/12/12 02:29:54;;;;;;;1.13;1.02;;;;;;;7.90;100.00;98004.22;4104497;28;20210;-44
2023/12/12 02:31:56;;;;;;;11.95;2.95;;;;;;;7.84;100.00;98000.59;4102416;28;20215;-44
2023/12/12 02:33:57;;;;;;;5.78;1.48;;;;;;;7.83;100.00;98000.84;4103914;28;20210;-44
2023/12/12 02:35:59;;;;;;;3.42;1.52;;;;;;;7.85;100.00;98013.13;4106734;28;20203;-44
2023/12/12 02:38:01;;;;;;;2.30;2.00;;;;;;;7.91;100.00;98000.41;4105931;28;20224;-44
2023/12/12 02:40:03;;;;;;;1.70;1.60;;;;;;;7.99;100.00;98008.19;4103138;28;20215;-44
2023/12/12 02:42:05;;;;;;;2.53;2.13;;;;;;;7.94;100.00;97998.03;4104739;28;20302;-45
2023/12/12 02:44:07;;;;;;;5.30;1.33;;;;;;;7.94;100.00;97989.03;4102197;28;20227;-44
2023/12/12 02:46:08;;;;;;;1.63;1.05;;;;;;;7.95;100.00;97982.53;4101546;28;20246;-44
2023/12/12 02:48:11;;;;;;;1.00;1.00;;;;;;;8.03;100.00;97979.38;4103841;28;20269;-44
2023/12/12 02:50:13;;;;;;;2.20;2.00;;;;;;;7.94;100.00;97983.56;4104056;28;20222;-45
2023/12/12 02:52:15;;;;;;;1.77;1.50;;;;;;;7.91;100.00;97984.06;4103061;28;20243;-44
2023/12/12 02:54:17;;;;;;;5.05;1.63;;;;;;;7.88;100.00;97984.59;4101979;28;20246;-44
2023/12/12 02:56:19;;;;;;;1.75;1.63;;;;;;;7.91;100.00;97978.63;4104268;28;20246;-43
2023/12/12 02:58:21;;;;;;;1.95;1.40;;;;;;;7.92;100.00;97969.38;4102787;28;20215;-45
2023/12/12 03:00:23;;;;;;;1.35;1.25;;;;;;;7.91;100.00;97973.19;4104273;28;20615;-45
2023/12/12 03:02:24;;;;;;;8.23;3.35;;;;;;;7.90;100.00;97975.06;4102047;28;21795;-45
2023/12/12 03:04:26;;;;;;;1.33;1.23;;;;;;;7.94;100.00;97975.41;4085428;28;21789;-44
2023/12/12 03:06:28;;;;;;;3.03;2.13;;;;;;;7.97;100.00;97972.19;4091819;28;20231;-45
2023/12/12 03:08:30;;;;;;;6.82;2.05;;;;;;;7.91;100.00;97984.06;4092378;28;20207;-44
2023/12/12 03:10:32;;;;;;;1.70;1.60;;;;;;;7.94;100.00;97978.13;4088053;28;20216;-44
2023/12/12 03:12:33;;;;;;;14.07;2.47;;;;;;;7.88;100.00;97973.69;4069792;29;20699;-45
2023/12/12 03:14:36;;;;;;;1.92;1.55;;;;;;;7.90;100.00;97976.97;4102056;28;20254;-44
2023/12/12 03:16:38;;;;;;;4.82;1.75;;;;;;;7.87;100.00;97969.28;4088144;28;20716;-44
2023/12/12 03:18:39;;;;;;;12.63;2.85;;;;;;;7.88;100.00;97968.25;4104091;28;20253;-45
2023/12/12 03:20:41;;;;;;;4.32;2.15;;;;;;;7.90;100.00;97968.81;4088193;28;20207;-45
2023/12/12 03:22:43;;;;;;;1.05;1.02;;;;;;;7.88;100.00;97979.13;4085702;28;20239;-46
2023/12/12 03:24:45;;;;;;;1.52;1.42;;;;;;;7.87;100.00;97966.56;4104796;28;20592;-45
2023/12/12 03:26:46;;;;;;;1.88;1.08;;;;;;;7.86;100.00;97964.91;4087499;28;20223;-44
2023/12/12 03:28:48;;;;;;;5.00;1.75;;;;;;;7.87;100.00;97955.66;4091273;28;20238;-45
2023/12/12 03:30:50;;;;;;;5.35;2.08;;;;;;;7.87;100.00;97961.94;4104265;28;20215;-46
2023/12/12 03:32:51;;;;;;;3.97;2.67;;;;;;;7.82;100.00;97956.41;4103023;28;20298;-45
2023/12/12 03:34:53;;;;;;;1.60;1.50;;;;;;;7.83;100.00;97959.97;4103648;28;20239;-45
2023/12/12 03:36:55;;;;;;;3.30;2.78;;;;;;;7.77;100.00;97952.78;4101866;28;20227;-45
2023/12/12 03:38:57;;;;;;;7.63;1.55;;;;;;;7.77;100.00;97952.78;4089141;28;20224;-45
2023/12/12 03:40:58;;;;;;;2.55;2.00;;;;;;;7.85;100.00;97955.94;4088291;28;21220;-45
2023/12/12 03:43:00;;;;;;;1.60;1.48;;;;;;;7.85;100.00;97949.66;4086130;28;20231;-45
2023/12/12 03:45:02;;;;;;;4.43;1.73;;;;;;;7.85;100.00;97946.94;4086461;28;20212;-44
2023/12/12 03:47:04;;;;;;;9.70;2.40;;;;;;;7.89;100.00;97953.53;4091068;28;20239;-44
2023/12/12 03:49:05;;;;;;;1.95;1.35;;;;;;;7.89;100.00;97937.19;4103253;28;20223;-45
2023/12/12 03:51:09;;;;;;;1.75;1.17;;;;;;;7.82;100.00;97939.25;4103836;28;20668;-45
2023/12/12 03:53:10;;;;;;;6.88;1.40;;;;;;;7.80;100.00;97935.94;4102186;28;20211;-45
2023/12/12 03:55:12;;;;;;;1.40;1.30;;;;;;;7.78;100.00;97936.22;4103081;28;20281;-44
2023/12/12 03:57:14;;;;;;;2.75;1.70;;;;;;;7.82;100.00;97929.19;4103131;28;20314;-45
2023/12/12 03:59:15;;;;;;;1.55;1.45;;;;;;;7.96;100.00;97926.97;4104761;28;20206;-44
2023/12/12 04:01:17;;;;;;;2.42;1.92;;;;;;;7.94;100.00;97924.47;4101839;28;20242;-44
2023/12/12 04:03:19;;;;;;;3.72;0.80;;;;;;;7.78;100.00;97924.47;4103507;28;20651;-44
2023/12/12 04:05:21;;;;;;;7.75;1.48;;;;;;;7.74;100.00;97918.69;4103974;28;20214;-46
2023/12/12 04:07:22;;;;;;;3.63;1.83;;;;;;;7.72;100.00;97925.47;4104877;28;20235;-44
2023/12/12 04:09:24;;;;;;;3.22;2.75;;;;;;;7.74;100.00;97926.03;4105557;28;20548;-44
2023/12/12 04:11:26;;;;;;;6.82;2.13;;;;;;;7.72;100.00;97936.34;4089549;28;20211;-45
2023/12/12 04:13:28;;;;;;;3.97;1.80;;;;;;;7.72;100.00;97941.81;4106471;28;20215;-44
2023/12/12 04:15:30;;;;;;;9.95;2.90;;;;;;;7.83;100.00;97943.63;4103282;28;20253;-44
2023/12/12 04:17:32;;;;;;;1.98;1.77;;;;;;;7.86;100.00;97943.13;4105678;28;20227;-45
2023/12/12 04:19:34;;;;;;;6.50;1.10;;;;;;;7.82;100.00;97936.53;4108319;28;20358;-44
2023/12/12 04:21:36;;;;;;;13.77;2.58;;;;;;;7.80;100.00;97933.22;4088234;28;20222;-45
2023/12/12 04:23:42;;;;;;;2.55;1.60;;;;;;;7.79;100.00;97942.47;4090787;28;20228;-45
2023/12/12 04:25:44;;;;;;;2.55;1.80;;;;;;;7.85;100.00;97936.03;4106058;28;20228;-45
2023/12/12 04:27:46;;;;;;;1.52;1.38;;;;;;;7.88;100.00;97930.09;4089496;28;20260;-45
2023/12/12 04:29:48;;;;;;;1.60;1.45;;;;;;;7.90;100.00;97933.41;4101462;28;20223;-44
2023/12/12 04:31:50;;;;;;;2.65;2.45;;;;;;;7.97;100.00;97934.06;4090252;28;20208;-44
2023/12/12 04:33:52;;;;;;;2.55;1.85;;;;;;;7.97;100.00;97936.78;4105754;28;20203;-45
2023/12/12 04:35:53;;;;;;;3.65;2.17;;;;;;;7.89;100.00;97937.19;4104359;28;20681;-44
2023/12/12 04:37:55;;;;;;;3.85;2.03;;;;;;;7.88;100.00;97935.56;4106325;28;20266;-45
2023/12/12 04:39:57;;;;;;;11.55;2.65;;;;;;;7.84;100.00;97931.66;4104934;28;20257;-45
2023/12/12 04:41:58;;;;;;;3.55;2.22;;;;;;;7.94;100.00;97929.09;4102953;28;20961;-45
2023/12/12 04:44:00;;;;;;;3.25;2.65;;;;;;;7.90;100.00;97927.97;4102706;28;20314;-44
2023/12/12 04:46:02;;;;;;;2.13;1.52;;;;;;;8.01;100.00;97919.69;4086933;28;20220;-45
2023/12/12 04:48:05;;;;;;;11.35;1.25;;;;;;;7.81;100.00;97918.56;4090205;28;20674;-44
2023/12/12 04:50:08;;;;;;;19.00;1.75;;;;;;;7.89;100.00;97912.69;4105246;28;20640;-46
2023/12/12 04:52:09;;;;;;;4.88;2.63;;;;;;;7.86;100.00;97910.44;4087282;28;20250;-45
2023/12/12 04:54:11;;;;;;;1.75;1.63;;;;;;;7.96;100.00;97911.44;4090070;28;20302;-46
2023/12/12 04:56:13;;;;;;;4.13;1.65;;;;;;;7.90;100.00;97911.63;4087859;28;20234;-44
2023/12/12 04:58:15;;;;;;;2.45;1.92;;;;;;;7.89;100.00;97909.97;4107472;28;20305;-44
2023/12/12 05:00:17;;;;;;;7.30;2.95;;;;;;;7.82;100.00;97909.31;4104881;28;20207;-44
2023/12/12 05:02:19;;;;;;;2.50;2.30;;;;;;;7.81;100.00;97908.47;4103583;28;20258;-44
2023/12/12 05:04:21;;;;;;;6.57;3.00;;;;;;;7.79;100.00;97921.53;4103504;28;20235;-45
2023/12/12 05:06:23;;;;;;;3.55;2.47;;;;;;;7.81;100.00;97918.56;4106207;28;20241;-45
2023/12/12 05:08:24;;;;;;;7.50;2.78;;;;;;;7.86;100.00;97915.88;4103159;28;20398;-44
2023/12/12 05:10:27;;;;;;;6.47;3.20;;;;;;;7.85;100.00;97908.78;4092925;28;20734;-44
2023/12/12 05:12:29;;;;;;;5.43;4.35;;;;;;;7.87;100.00;97906.63;4105009;28;20211;-44
2023/12/12 05:14:34;;;;;;;10.13;3.80;;;;;;;7.88;100.00;97900.16;4087537;28;20264;-45
2023/12/12 05:16:36;;;;;;;5.88;4.20;;;;;;;7.85;100.00;97897.91;4106609;28;20234;-43
2023/12/12 05:18:38;;;;;;;8.32;5.82;;;;;;;7.83;100.00;97900.06;4103367;28;20215;-45
2023/12/12 05:20:39;;;;;;;8.75;7.15;;;;;;;7.83;100.00;97894.63;4102883;28;20301;-44
2023/12/12 05:22:41;;;;;;;6.85;5.30;;;;;;;7.81;100.00;97894.03;4102745;28;20206;-45
2023/12/12 05:24:43;;;;;;;9.73;5.95;;;;;;;7.93;100.00;97886.59;4087790;28;20246;-45
2023/12/12 05:26:45;;;;;;;4.47;3.42;;;;;;;7.86;100.00;97883.22;4104598;28;20238;-45
2023/12/12 05:28:46;;;;;;;4.22;2.90;;;;;;;7.89;100.00;97882.72;4104784;28;20281;-45
2023/12/12 05:30:48;;;;;;;6.05;2.10;;;;;;;7.87;100.00;97882.13;4105895;28;20211;-44
2023/12/12 05:32:50;;;;;;;2.25;1.63;;;;;;;7.86;100.00;97875.88;4104691;28;20767;-45
2023/12/12 05:34:52;;;;;;;4.97;3.13;;;;;;;7.86;100.00;97872.31;4088146;28;20208;-45
2023/12/12 05:36:53;;;;;;;6.25;2.03;;;;;;;7.88;100.00;97875.63;4088235;28;20307;-46
2023/12/12 05:38:55;;;;;;;6.82;3.33;;;;;;;7.88;100.00;97875.63;4105904;28;20691;-45
2023/12/12 05:40:57;;;;;;;2.33;2.17;;;;;;;7.89;100.00;97872.66;4105046;28;20254;-45
2023/12/12 05:42:59;;;;;;;3.55;1.73;;;;;;;7.92;100.00;97876.78;4102491;28;20210;-45
2023/12/12 05:45:02;;;;;;;3.53;2.00;;;;;;;7.89;100.00;97867.19;4105360;28;20829;-46
2023/12/12 05:47:04;;;;;;;6.35;1.90;;;;;;;7.93;100.00;97879.25;4089289;28;20236;-45
2023/12/12 05:49:08;;;;;;;2.45;2.25;;;;;;;8.05;100.00;97868.25;4088564;28;20215;-46
2023/12/12 05:51:09;;;;;;;3.05;2.83;;;;;;;8.06;100.00;97873.47;4088202;28;20225;-45
2023/12/12 05:53:11;;;;;;;3.75;2.50;;;;;;;7.98;100.00;97882.06;4101991;28;20207;-45
2023/12/12 05:55:14;;;;;;;11.80;2.38;;;;;;;7.94;100.00;97877.34;4089465;28;20203;-44
2023/12/12 05:57:16;;;;;;;2.47;1.77;;;;;;;7.91;100.00;97875.13;4091244;28;20242;-44
2023/12/12 05:59:17;;;;;;;1.73;1.63;;;;;;;8.00;100.00;97868.16;4101905;28;20253;-44
2023/12/12 06:01:19;;;;;;;3.45;3.15;;;;;;;8.02;100.00;97871.50;4099426;28;20712;-45
2023/12/12 06:03:21;;;;;;;2.33;1.85;;;;;;;8.02;100.00;97866.03;4104198;28;20250;-45
2023/12/12 06:05:23;;;;;;;2.17;1.98;;;;;;;7.97;100.00;97865.97;4089566;28;20211;-45
2023/12/12 06:07:25;;;;;;;3.63;2.33;;;;;;;7.90;100.00;97857.94;4087620;28;20311;-45
2023/12/12 06:09:27;;;;;;;3.08;2.78;;;;;;;7.91;100.00;97845.16;4103623;28;20210;-45
2023/12/12 06:11:28;;;;;;;2.28;2.08;;;;;;;7.91;100.00;97840.56;4102643;28;20206;-46
2023/12/12 06:13:30;;;;;;;3.67;2.60;;;;;;;7.93;100.00;97837.56;4101131;28;20281;-45
2023/12/12 06:15:32;;;;;;;3.53;2.15;;;;;;;7.89;100.00;97839.16;4069766;29;20261;-44
2023/12/12 06:17:35;;;;;;;2.85;2.65;;;;;;;7.89;100.00;97828.25;4102858;28;20889;-45
2023/12/12 06:19:36;;;;;;;8.48;3.13;;;;;;;7.89;100.00;97839.16;4087490;28;20212;-45
2023/12/12 06:21:38;;;;;;;2.45;2.25;;;;;;;7.90;100.00;97836.16;4102058;28;20213;-45
2023/12/12 06:23:40;;;;;;;7.50;3.03;;;;;;;7.94;100.00;97836.47;4100716;28;20231;-44
2023/12/12 06:25:41;;;;;;;2.13;2.03;;;;;;;7.97;100.00;97830.56;4084736;28;20203;-45
2023/12/12 06:27:43;;;;;;;2.65;2.10;;;;;;;7.91;100.00;97823.38;4093718;28;20219;-47
2023/12/12 06:29:45;;;;;;;1.63;1.48;;;;;;;7.94;100.00;97820.13;4092900;28;20286;-45
2023/12/12 06:31:46;;;;;;;10.00;2.78;;;;;;;7.88;100.00;97821.16;4087332;28;20247;-45
2023/12/12 06:33:49;;;;;;;13.35;2.40;;;;;;;7.88;100.00;97827.41;4103100;28;20625;-44
2023/12/12 06:35:51;;;;;;;7.47;2.33;;;;;;;7.88;100.00;97826.63;4101815;28;20242;-46
2023/12/12 06:37:53;;;;;;;2.05;1.95;;;;;;;7.88;100.00;97821.97;4101314;28;20257;-45
2023/12/12 06:39:55;;;;;;;4.18;3.35;;;;;;;7.92;100.00;97819.56;4090937;28;20207;-44
2023/12/12 06:41:58;;;;;;;2.95;2.65;;;;;;;7.94;100.00;97820.97;4102639;28;20218;-45
2023/12/12 06:43:59;;;;;;;2.35;1.92;;;;;;;7.93;100.00;97830.22;4088138;28;20322;-44
2023/12/12 06:46:02;;;;;;;1.63;1.52;;;;;;;7.94;100.00;97814.69;4087214;28;20745;-45
2023/12/12 06:48:04;;;;;;;4.63;2.53;;;;;;;7.99;100.00;97822.94;4088047;28;20207;-44
2023/12/12 06:50:06;;;;;;;2.53;2.03;;;;;;;8.02;100.00;97822.47;4087708;28;20588;-44
2023/12/12 06:52:08;;;;;;;4.60;1.77;;;;;;;7.98;100.00;97821.28;4103433;28;20301;-45
2023/12/12 06:54:10;;;;;;;2.25;1.60;;;;;;;8.02;100.00;97817.00;4102018;28;21022;-45
2023/12/12 06:56:12;;;;;;;3.35;1.90;;;;;;;8.07;100.00;97814.34;4105229;28;20230;-45
2023/12/12 06:58:17;;;;;;;4.50;2.00;;;;;;;7.96;100.00;97820.72;4101550;28;20214;-45
2023/12/12 07:00:19;;;;;;;1.60;1.50;;;;;;;7.94;100.00;97815.53;4102251;28;20253;-46
2023/12/12 07:02:21;;;;;;;1.92;1.83;;;;;;;7.94;100.00;97825.59;4091336;28;20365;-45
2023/12/12 07:04:23;;;;;;;1.52;1.42;;;;;;;7.94;100.00;97811.97;4085560;28;20761;-45
2023/12/12 07:06:25;;;;;;;2.33;2.17;;;;;;;7.94;100.00;97807.34;4104415;28;20269;-45
2023/12/12 07:08:27;;;;;;;5.35;1.73;;;;;;;7.97;100.00;97808.75;4091802;28;20250;-45
2023/12/12 07:10:30;;;;;;;2.08;1.88;;;;;;;7.96;100.00;97807.13;4106378;28;20708;-44
2023/12/12 07:12:33;;;;;;;2.10;1.90;;;;;;;7.98;100.00;97794.06;4105104;28;20211;-44
2023/12/12 07:14:35;;;;;;;2.20;2.03;;;;;;;8.01;100.00;97794.38;4087622;28;20211;-45
2023/12/12 07:16:37;;;;;;;7.57;2.08;;;;;;;8.01;100.00;97790.84;4103356;28;20705;-45
2023/12/12 07:18:39;;;;;;;6.10;2.05;;;;;;;8.01;100.00;97777.22;4088013;28;20693;-44
2023/12/12 07:20:41;;;;;;;2.63;2.42;;;;;;;8.00;100.00;97781.00;4102665;28;20796;-44
2023/12/12 07:22:43;;;;;;;3.25;2.60;;;;;;;8.01;100.00;97777.22;4101767;28;20210;-45
2023/12/12 07:24:45;;;;;;;1.92;1.33;;;;;;;8.00;100.00;97781.00;4087650;28;20227;-45
2023/12/12 07:26:46;;;;;;;1.65;1.55;;;;;;;7.99;100.00;97795.69;4088693;28;20227;-45
2023/12/12 07:28:48;;;;;;;1.95;1.80;;;;;;;8.03;100.00;97808.56;4102394;28;20211;-45
2023/12/12 07:30:53;;;;;;;11.18;2.03;;;;;;;8.08;100.00;97800.47;4104712;28;20289;-45
2023/12/12 07:32:55;;;;;;;2.00;1.38;;;;;;;8.02;100.00;97811.56;4103906;28;20223;-45
2023/12/12 07:34:57;;;;;;;1.88;1.38;;;;;;;8.03;100.00;97808.56;4103159;28;20207;-45
2023/12/12 07:36:59;;;;;;;4.65;1.65;;;;;;;8.02;100.00;97797.94;4103252;28;20223;-45
2023/12/12 07:39:01;;;;;;;13.50;1.50;;;;;;;8.03;100.00;97786.78;4084945;28;20721;-45
2023/12/12 07:41:02;;;;;;;1.98;1.88;;;;;;;8.02;100.00;97773.44;4090352;28;20646;-44
2023/12/12 07:43:04;;;;;;;1.65;1.55;;;;;;;8.01;100.00;97763.59;4104741;28;20210;-44
2023/12/12 07:45:07;;;;;;;2.13;1.65;;;;;;;8.02;100.00;97757.88;4087320;28;20227;-44
2023/12/12 07:47:09;;;;;;;1.10;1.10;;;;;;;8.03;100.00;97772.34;4091267;28;20239;-44
2023/12/12 07:49:13;;;;;;;5.40;2.20;;;;;;;8.04;100.00;97776.72;4105404;28;20207;-45
2023/12/12 07:51:16;;;;;;;2.70;1.45;;;;;;;8.05;100.00;97784.63;4092417;28;20231;-45
2023/12/12 07:53:17;;;;;;;2.78;2.22;;;;;;;8.07;100.00;97781.63;4107179;28;20593;-44
2023/12/12 07:55:19;;;;;;;3.40;1.88;;;;;;;8.11;100.00;97778.19;4088815;28;20891;-45
2023/12/12 07:57:25;;;;;;;8.18;1.83;;;;;;;8.09;100.00;97771.34;4089273;28;20235;-44
2023/12/12 07:59:27;;;;;;;2.17;2.08;;;;;;;8.09;100.00;97768.59;4105046;28;20261;-45
2023/12/12 08:01:29;;;;;;;3.38;2.00;;;;;;;8.11;100.00;97777.34;4103537;28;20206;-45
2023/12/12 08:03:31;;;;;;;2.28;2.13;;;;;;;8.11;100.00;97770.00;4093314;28;20242;-46
2023/12/12 08:05:33;;;;;;;11.27;2.08;;;;;;;8.14;100.00;97776.81;4105264;28;20676;-45
2023/12/12 08:07:35;;;;;;;2.75;1.88;;;;;;;8.19;100.00;97750.53;4107281;28;20246;-46
2023/12/12 08:09:37;;;;;;;5.03;1.75;;;;;;;8.20;100.00;97754.06;4107179;28;20302;-44
2023/12/12 08:11:39;;;;;;;2.58;2.22;;;;;;;8.19;100.00;97752.38;4105776;28;20222;-45
2023/12/12 08:13:41;;;;;;;1.65;1.55;;;;;;;8.21;100.00;97761.19;4090079;28;20207;-45
2023/12/12 08:15:44;;;;;;;1.88;1.77;;;;;;;8.24;100.00;97760.66;4105959;28;20297;-45
2023/12/12 08:17:46;;;;;;;1.73;1.58;;;;;;;8.22;100.00;97762.81;4105882;28;20268;-45
2023/12/12 08:19:48;;;;;;;1.55;1.30;;;;;;;8.22;100.00;97760.09;4106106;28;20235;-44
2023/12/12 08:21:49;;;;;;;3.30;1.70;;;;;;;8.20;100.00;97743.16;4110141;28;20210;-45
2023/12/12 08:23:51;;;;;;;1.58;1.48;;;;;;;8.21;100.00;97759.25;4105896;28;20207;-46
2023/12/12 08:25:53;;;;;;;4.18;2.63;;;;;;;8.21;100.00;97750.28;4088007;28;20625;-45
2023/12/12 08:27:57;;;;;;;2.30;1.65;;;;;;;8.26;100.00;97736.69;4089760;28;21263;-45
2023/12/12 08:30:04;;;;;;;3.20;1.17;;;;;;;8.25;100.00;97735.03;4091053;28;20265;-45
2023/12/12 08:32:06;;;;;;;1.90;1.13;;;;;;;8.23;100.00;97732.56;4088528;28;20303;-44
2023/12/12 08:34:08;;;;;;;3.28;3.08;;;;;;;8.33;100.00;97715.50;4104920;28;20744;-46
2023/12/12 08:36:10;;;;;;;1.77;1.30;;;;;;;8.27;100.00;97727.44;4105467;28;20234;-45
2023/12/12 08:38:12;;;;;;;2.25;1.38;;;;;;;8.34;100.00;97717.19;4090068;28;20219;-45
2023/12/12 08:40:14;;;;;;;3.08;2.42;;;;;;;8.30;100.00;97721.50;4092793;28;20238;-45
2023/12/12 08:42:16;;;;;;;3.25;2.00;;;;;;;8.33;100.00;97731.88;4105998;28;20206;-45
2023/12/12 08:44:17;;;;;;;2.13;1.92;;;;;;;8.34;100.00;97723.44;4104885;28;20234;-44
2023/12/12 08:46:21;;;;;;;9.52;1.73;;;;;;;8.37;100.00;97722.13;4090366;28;20318;-45
2023/12/12 08:48:23;;;;;;;2.58;1.98;;;;;;;8.38;100.00;97724.59;4090261;28;20218;-45
2023/12/12 08:50:25;;;;;;;3.80;2.55;;;;;;;8.41;100.00;97728.72;4094633;28;20274;-45
2023/12/12 08:52:27;;;;;;;2.63;1.35;;;;;;;8.39;100.00;97717.22;4091641;28;20729;-45
2023/12/12 08:54:29;;;;;;;3.03;2.28;;;;;;;8.40;100.00;97710.69;4087971;28;20776;-44
2023/12/12 08:56:30;;;;;;;3.20;1.45;;;;;;;8.38;100.00;97707.41;4103945;28;21116;-46
2023/12/12 08:58:32;;;;;;;2.20;2.00;;;;;;;8.40;100.00;97710.69;4089553;28;20217;-45
2023/12/12 09:00:34;;;;;;;4.20;1.80;;;;;;;8.39;100.00;97698.97;4093889;28;20241;-44
2023/12/12 09:02:36;;;;;;;2.42;2.22;;;;;;;8.43;100.00;97702.81;4106059;28;20206;-45
2023/12/12 09:04:38;;;;;;;5.32;2.40;;;;;;;8.46;100.00;97687.84;4091340;28;20223;-45
2023/12/12 09:06:40;;;;;;;11.93;2.80;;;;;;;8.48;100.00;97691.16;4104809;28;20239;-45
2023/12/12 09:08:42;;;;;;;1.88;1.75;;;;;;;8.52;100.00;97697.72;4083454;28;20212;-46
2023/12/12 09:10:44;;;;;;;1.55;1.45;;;;;;;8.54;100.00;97690.16;4087570;28;20464;-44
2023/12/12 09:12:46;;;;;;;6.28;2.60;;;;;;;8.58;100.00;97691.25;4092915;28;20319;-45
2023/12/12 09:14:47;;;;;;;6.15;2.17;;;;;;;8.54;100.00;97687.41;4105429;28;20913;-44
2023/12/12 09:16:49;;;;;;;1.52;1.35;;;;;;;8.56;100.00;97683.31;4105186;28;20242;-45
2023/12/12 09:18:51;;;;;;;4.00;1.98;;;;;;;8.57;100.00;97684.16;4105643;28;20258;-46
2023/12/12 09:20:53;;;;;;;4.20;2.40;;;;;;;8.55;100.00;97678.97;4089744;28;20996;-44
2023/12/12 09:22:55;;;;;;;3.45;2.67;;;;;;;8.62;100.00;97678.75;4105100;28;20214;-45
2023/12/12 09:24:56;;;;;;;6.40;2.15;;;;;;;8.67;100.00;97673.34;4086532;28;20294;-45
2023/12/12 09:26:58;;;;;;;2.20;1.33;;;;;;;8.67;100.00;97667.88;4091408;28;20297;-44
2023/12/12 09:29:00;;;;;;;1.83;1.73;;;;;;;8.62;100.00;97676.03;4092196;28;20248;-45
2023/12/12 09:31:02;;;;;;;1.50;1.40;;;;;;;8.72;100.00;97678.84;4088112;28;20361;-45
2023/12/12 09:33:03;;;;;;;1.58;1.48;;;;;;;8.72;100.00;97670.66;4089339;28;20307;-45